Time;durP1;ratioP1;P1;durP2;ratioP2;P2;SDS_P1;SDS_P2;PMS_P1;PMS_P2;Temp;Humidity;BMP_temperature;BMP_pressure;BME280_temperature;BME280_humidity;BME280_pressure;Samples;Min_cycle;Max_cycle;Signal;HPM_P1;HPM_P2
2021/07/17 00:01:28;;;;;;;11.30;10.10;;;18.90;56.60;;;;;;5034619;28;20488;-71
2021/07/17 00:03:53;;;;;;;11.57;9.83;;;18.90;56.90;;;;;;5035418;28;20441;-71
2021/07/17 00:06:19;;;;;;;12.90;11.17;;;18.80;56.10;;;;;;5035787;28;20431;-71
2021/07/17 00:08:46;;;;;;;13.60;11.90;;;18.70;56.20;;;;;;5034450;28;20207;-70
2021/07/17 00:11:12;;;;;;;17.90;12.00;;;18.60;56.60;;;;;;5035609;28;20176;-71
2021/07/17 00:13:38;;;;;;;16.33;11.23;;;18.50;56.50;;;;;;5035741;28;20440;-71
2021/07/17 00:16:04;;;;;;;16.50;11.90;;;18.40;56.50;;;;;;5034611;28;20237;-71
2021/07/17 00:18:29;;;;;;;17.53;12.30;;;18.30;57.20;;;;;;5034917;28;20764;-71
2021/07/17 00:20:55;;;;;;;15.57;13.77;;;18.30;57.40;;;;;;5036409;28;20198;-71
2021/07/17 00:23:21;;;;;;;13.50;12.13;;;18.30;57.50;;;;;;5034991;28;20203;-72
2021/07/17 00:25:48;;;;;;;14.50;12.57;;;18.30;56.70;;;;;;5034697;28;20244;-72
2021/07/17 00:28:14;;;;;;;14.20;12.70;;;18.30;56.40;;;;;;5036039;28;20179;-71
2021/07/17 00:30:41;;;;;;;19.53;13.80;;;18.30;57.00;;;;;;5035878;28;20425;-72
2021/07/17 00:33:07;;;;;;;13.53;12.23;;;18.30;55.90;;;;;;5035526;28;20970;-71
2021/07/17 00:35:33;;;;;;;12.67;11.37;;;18.30;55.60;;;;;;5035919;28;20502;-72
2021/07/17 00:37:58;;;;;;;13.83;12.10;;;18.30;55.10;;;;;;5036168;28;20430;-72
2021/07/17 00:40:24;;;;;;;18.53;12.17;;;18.40;55.40;;;;;;5034969;28;20775;-72
2021/07/17 00:42:51;;;;;;;13.00;11.63;;;18.40;55.30;;;;;;5035421;28;20553;-72
2021/07/17 00:45:18;;;;;;;14.27;12.03;;;18.40;55.10;;;;;;5035454;28;20414;-72
2021/07/17 00:47:44;;;;;;;14.90;11.53;;;18.40;54.80;;;;;;5034297;28;20437;-71
2021/07/17 00:50:15;;;;;;;15.77;14.10;;;18.40;54.40;;;;;;5035365;28;20418;-72
2021/07/17 00:52:41;;;;;;;15.37;12.23;;;18.40;54.50;;;;;;5035524;28;20461;-71
2021/07/17 00:55:08;;;;;;;13.27;11.80;;;18.30;54.70;;;;;;5035192;28;20962;-71
2021/07/17 00:57:35;;;;;;;14.63;11.40;;;18.30;55.30;;;;;;5034650;28;20414;-71
2021/07/17 01:00:03;;;;;;;14.70;12.67;;;18.30;55.50;;;;;;5033267;28;20430;-71
2021/07/17 01:02:37;;;;;;;18.00;12.93;;;18.30;54.90;;;;;;5033516;28;20426;-71
2021/07/17 01:05:03;;;;;;;15.03;13.47;;;18.30;55.20;;;;;;5033491;28;20843;-71
2021/07/17 01:07:29;;;;;;;20.17;13.90;;;18.20;55.10;;;;;;5033597;28;20834;-72
2021/07/17 01:09:54;;;;;;;17.53;12.30;;;18.20;55.50;;;;;;5033296;28;20463;-71
2021/07/17 01:12:20;;;;;;;15.30;12.53;;;18.20;55.60;;;;;;5033302;28;20202;-71
2021/07/17 01:14:46;;;;;;;17.37;13.13;;;18.20;55.70;;;;;;5033021;28;20199;-71
2021/07/17 01:17:13;;;;;;;17.07;12.70;;;18.20;55.60;;;;;;5032415;28;20216;-72
2021/07/17 01:19:39;;;;;;;18.30;12.90;;;18.20;56.10;;;;;;5032697;28;20414;-71
2021/07/17 01:22:04;;;;;;;15.37;13.20;;;18.20;55.90;;;;;;5033239;28;20560;-71
2021/07/17 01:24:31;;;;;;;13.87;12.50;;;18.20;55.80;;;;;;5032826;28;20433;-71
2021/07/17 01:26:56;;;;;;;16.03;11.33;;;18.30;55.10;;;;;;5032777;28;20179;-71
2021/07/17 01:29:22;;;;;;;20.27;14.00;;;18.30;55.30;;;;;;5032244;28;20521;-71
2021/07/17 01:31:48;;;;;;;15.60;12.40;;;18.30;54.60;;;;;;5033084;28;20268;-71
2021/07/17 01:34:15;;;;;;;12.93;10.60;;;18.30;55.20;;;;;;5033114;28;20198;-71
2021/07/17 01:36:40;;;;;;;16.47;11.63;;;18.30;55.00;;;;;;5034457;28;20414;-71
2021/07/17 01:39:06;;;;;;;15.53;12.23;;;18.40;54.40;;;;;;5034485;28;20424;-72
2021/07/17 01:41:32;;;;;;;14.90;11.77;;;18.30;53.80;;;;;;5035089;28;20175;-72
2021/07/17 01:43:58;;;;;;;17.87;13.17;;;18.30;53.40;;;;;;5032750;28;20446;-71
2021/07/17 01:46:26;;;;;;;20.13;12.60;;;18.30;52.60;;;;;;5032964;28;20460;-72
2021/07/17 01:48:53;;;;;;;15.70;13.97;;;18.30;52.80;;;;;;5032279;28;20655;-72
2021/07/17 01:51:19;;;;;;;15.20;12.30;;;18.20;53.20;;;;;;5031634;28;20433;-71
2021/07/17 01:53:45;;;;;;;13.33;10.20;;;18.20;53.70;;;;;;5032377;28;20454;-71
2021/07/17 01:56:11;;;;;;;12.37;10.97;;;18.20;53.70;;;;;;5031525;28;20410;-71
2021/07/17 01:58:39;;;;;;;16.13;13.47;;;18.20;54.40;;;;;;5032613;28;20441;-71
2021/07/17 02:01:04;;;;;;;17.50;12.50;;;18.20;54.40;;;;;;5032095;28;20191;-71
2021/07/17 02:03:30;;;;;;;14.33;11.60;;;18.10;54.90;;;;;;5032341;28;20515;-71
2021/07/17 02:05:55;;;;;;;14.13;12.73;;;18.10;54.70;;;;;;5032118;28;20183;-71
2021/07/17 02:08:21;;;;;;;19.77;12.10;;;18.20;54.50;;;;;;5032089;28;20186;-71
2021/07/17 02:10:46;;;;;;;15.00;11.77;;;18.30;54.40;;;;;;5031873;28;20175;-71
2021/07/17 02:13:14;;;;;;;17.23;11.30;;;18.30;53.80;;;;;;5031865;28;20585;-71
2021/07/17 02:15:48;;;;;;;12.30;10.80;;;18.30;53.80;;;;;;5032263;28;20194;-71
2021/07/17 02:18:18;;;;;;;10.30;9.00;;;18.30;53.80;;;;;;5032381;28;21109;-71
2021/07/17 02:20:44;;;;;;;14.70;12.00;;;18.40;53.90;;;;;;5032527;28;20411;-72
2021/07/17 02:23:10;;;;;;;15.20;12.53;;;18.40;53.90;;;;;;5034214;28;20796;-71
2021/07/17 02:25:36;;;;;;;15.17;12.97;;;18.40;53.40;;;;;;5032251;28;20188;-71
2021/07/17 02:28:03;;;;;;;13.10;11.60;;;18.30;53.20;;;;;;5032329;28;20418;-71
2021/07/17 02:30:28;;;;;;;14.43;11.00;;;18.30;53.80;;;;;;5034511;28;20444;-71
2021/07/17 02:32:54;;;;;;;15.50;12.50;;;18.30;53.80;;;;;;5034555;28;20634;-71
2021/07/17 02:35:20;;;;;;;12.63;10.27;;;18.30;53.80;;;;;;5035825;28;20179;-71
2021/07/17 02:37:45;;;;;;;12.87;11.53;;;18.30;53.80;;;;;;5036037;28;20178;-71
2021/07/17 02:40:11;;;;;;;10.73;9.60;;;18.30;53.80;;;;;;5034691;28;20179;-71
2021/07/17 02:42:37;;;;;;;12.43;11.13;;;18.20;53.70;;;;;;5034415;28;20190;-71
2021/07/17 02:45:05;;;;;;;17.83;13.67;;;18.10;53.70;;;;;;5034344;28;20257;-71
2021/07/17 02:47:31;;;;;;;15.13;13.63;;;18.10;54.10;;;;;;5037825;28;20193;-71
2021/07/17 02:49:56;;;;;;;21.10;13.27;;;18.00;54.50;;;;;;5035686;28;20504;-71
2021/07/17 02:52:22;;;;;;;13.17;11.87;;;18.00;55.10;;;;;;5035662;28;20462;-71
2021/07/17 02:54:47;;;;;;;20.10;13.90;;;18.00;55.20;;;;;;5035818;28;20249;-71
2021/07/17 02:57:13;;;;;;;14.80;13.23;;;17.90;54.80;;;;;;5035290;28;20175;-71
2021/07/17 02:59:38;;;;;;;18.33;12.77;;;17.90;55.20;;;;;;5035499;28;20199;-71
2021/07/17 03:02:04;;;;;;;13.60;12.23;;;17.90;55.00;;;;;;5035934;28;20195;-71
2021/07/17 03:04:29;;;;;;;13.30;11.97;;;17.90;54.90;;;;;;5035646;28;20203;-71
2021/07/17 03:06:55;;;;;;;15.60;11.40;;;17.90;54.70;;;;;;5035436;28;20218;-71
2021/07/17 03:09:21;;;;;;;13.60;12.20;;;17.90;55.10;;;;;;5035075;28;20179;-71
2021/07/17 03:11:46;;;;;;;16.37;12.50;;;17.80;55.40;;;;;;5035129;28;20290;-71
2021/07/17 03:14:12;;;;;;;18.73;14.03;;;17.80;55.90;;;;;;5033912;28;20195;-70
2021/07/17 03:16:38;;;;;;;15.10;13.60;;;17.70;56.30;;;;;;5033461;28;20380;-70
2021/07/17 03:19:03;;;;;;;17.50;13.07;;;17.70;56.80;;;;;;5035036;28;20206;-70
2021/07/17 03:21:30;;;;;;;17.77;13.20;;;17.70;56.60;;;;;;5035366;28;20657;-71
2021/07/17 03:23:56;;;;;;;16.67;13.80;;;17.70;56.60;;;;;;5035583;28;20201;-69
2021/07/17 03:26:23;;;;;;;21.73;14.63;;;17.70;56.30;;;;;;5035970;28;20422;-70
2021/07/17 03:28:48;;;;;;;17.80;15.67;;;17.70;56.40;;;;;;5034904;28;20420;-70
2021/07/17 03:31:14;;;;;;;17.10;14.03;;;;;;;;;;5035123;28;20417;-70
2021/07/17 03:33:40;;;;;;;17.53;13.83;;;17.50;68.60;;;;;;5035332;28;20211;-70
2021/07/17 03:36:06;;;;;;;19.20;14.20;;;17.50;79.50;;;;;;5035271;28;20418;-70
2021/07/17 03:38:32;;;;;;;19.23;16.40;;;17.50;82.20;;;;;;5034989;28;20192;-70
2021/07/17 03:40:58;;;;;;;18.37;13.57;;;17.50;87.70;;;;;;5034082;28;20172;-70
2021/07/17 03:43:23;;;;;;;24.43;14.93;;;17.50;89.90;;;;;;5035477;28;20434;-71
2021/07/17 03:45:49;;;;;;;20.00;16.27;;;17.40;90.00;;;;;;5034137;28;20426;-71
2021/07/17 03:48:17;;;;;;;14.77;13.07;;;;;;;;;;5034900;28;20641;-71
2021/07/17 03:50:43;;;;;;;20.03;15.03;;;;;;;;;;5034732;28;20655;-71
2021/07/17 03:53:09;;;;;;;38.73;17.30;;;;;;;;;;5034794;28;20552;-72
2021/07/17 03:55:35;;;;;;;18.30;12.60;;;;;;;;;;5033243;28;20414;-71
2021/07/17 03:58:01;;;;;;;18.30;15.00;;;;;;;;;;5034746;28;20414;-71
2021/07/17 04:00:27;;;;;;;16.90;15.10;;;;;;;;;;5034047;28;20410;-71
2021/07/17 04:02:53;;;;;;;21.83;15.10;;;;;;;;;;5033734;28;20413;-70
2021/07/17 04:05:19;;;;;;;19.00;14.40;;;;;;;;;;5034074;28;20406;-70
2021/07/17 04:07:45;;;;;;;16.73;15.03;;;;;;;;;;5034644;28;20460;-71
2021/07/17 04:10:12;;;;;;;17.77;13.73;;;;;;;;;;5032191;28;20422;-70
2021/07/17 04:12:38;;;;;;;16.63;14.63;;;;;;;;;;5033653;28;20457;-71
2021/07/17 04:15:06;;;;;;;17.23;15.43;;;;;;;;;;5033285;28;20625;-71
2021/07/17 04:17:32;;;;;;;17.00;14.80;;;17.20;65.40;;;;;;5033644;28;20446;-71
2021/07/17 04:19:57;;;;;;;20.83;13.97;;;17.10;65.60;;;;;;5034669;28;20410;-71
2021/07/17 04:22:23;;;;;;;19.50;15.00;;;17.10;64.30;;;;;;5035254;28;20450;-70
2021/07/17 04:24:49;;;;;;;18.13;16.00;;;17.20;61.60;;;;;;5032217;28;20579;-71
2021/07/17 04:27:15;;;;;;;20.83;15.43;;;17.20;59.00;;;;;;5033683;28;20171;-70
2021/07/17 04:29:41;;;;;;;20.83;16.00;;;17.20;57.80;;;;;;5033791;28;20687;-70
2021/07/17 04:32:07;;;;;;;13.83;12.50;;;17.20;57.80;;;;;;5032193;28;20221;-71
2021/07/17 04:34:33;;;;;;;18.40;14.77;;;17.10;57.70;;;;;;5033302;28;20982;-70
2021/07/17 04:36:59;;;;;;;24.17;15.87;;;17.10;57.70;;;;;;5033310;28;20424;-70
2021/07/17 04:39:25;;;;;;;39.03;14.23;;;17.10;57.70;;;;;;5033246;28;20249;-70
2021/07/17 04:41:51;;;;;;;18.57;14.73;;;17.00;57.60;;;;;;5034138;28;20414;-70
2021/07/17 04:44:17;;;;;;;22.00;15.33;;;17.00;57.60;;;;;;5033209;28;20449;-71
2021/07/17 04:46:42;;;;;;;18.73;14.50;;;17.00;58.30;;;;;;5033538;28;20782;-71
2021/07/17 04:49:08;;;;;;;17.33;14.70;;;17.00;58.80;;;;;;5033242;28;20179;-70
2021/07/17 04:51:33;;;;;;;27.93;17.73;;;17.00;58.80;;;;;;5030934;28;20285;-71
2021/07/17 04:53:59;;;;;;;21.50;15.20;;;17.00;58.60;;;;;;5033379;28;20202;-70
2021/07/17 04:56:25;;;;;;;20.80;15.57;;;17.00;59.20;;;;;;5033065;28;20176;-71
2021/07/17 04:58:50;;;;;;;20.77;15.77;;;17.00;59.20;;;;;;5032783;28;20233;-70
2021/07/17 05:01:16;;;;;;;22.03;17.10;;;17.00;58.80;;;;;;5032979;28;20201;-70
2021/07/17 05:03:41;;;;;;;18.40;15.20;;;16.80;59.20;;;;;;5031605;28;20286;-71
2021/07/17 05:06:07;;;;;;;23.10;15.07;;;16.80;60.20;;;;;;5032985;28;20258;-71
2021/07/17 05:08:33;;;;;;;21.07;15.80;;;16.70;60.70;;;;;;5033036;28;20242;-70
2021/07/17 05:10:58;;;;;;;23.00;16.57;;;16.70;62.00;;;;;;5032254;28;20183;-71
2021/07/17 05:13:24;;;;;;;21.43;16.60;;;16.70;62.30;;;;;;5033140;28;20275;-70
2021/07/17 05:15:50;;;;;;;22.23;16.77;;;16.70;62.80;;;;;;5033051;28;20183;-70
2021/07/17 05:18:16;;;;;;;23.77;18.10;;;16.70;63.20;;;;;;5033108;28;20174;-72
2021/07/17 05:20:43;;;;;;;20.70;15.70;;;16.70;62.50;;;;;;5016941;28;20470;-71
2021/07/17 05:23:09;;;;;;;22.47;15.97;;;16.70;63.20;;;;;;5013900;28;20447;-70
2021/07/17 05:25:36;;;;;;;21.73;17.07;;;16.70;63.10;;;;;;5013848;28;20451;-70
2021/07/17 05:28:02;;;;;;;21.57;18.03;;;16.70;63.40;;;;;;5013703;28;20437;-70
2021/07/17 05:30:28;;;;;;;17.87;14.97;;;16.80;63.40;;;;;;5013661;28;20764;-70
2021/07/17 05:32:53;;;;;;;17.83;15.87;;;16.80;63.50;;;;;;5012184;28;20469;-70
2021/07/17 05:35:19;;;;;;;21.50;16.83;;;16.90;63.70;;;;;;5012905;28;20172;-70
2021/07/17 05:37:44;;;;;;;20.63;15.03;;;16.90;63.20;;;;;;5016914;28;20172;-71
2021/07/17 05:40:11;;;;;;;22.13;16.67;;;16.90;63.50;;;;;;5015820;28;20258;-70
2021/07/17 05:42:36;;;;;;;22.80;16.60;;;17.00;62.60;;;;;;5016567;28;20234;-71
2021/07/17 05:45:03;;;;;;;24.03;15.57;;;17.00;62.60;;;;;;5015041;28;20434;-70
2021/07/17 05:47:29;;;;;;;19.70;12.90;;;17.00;62.60;;;;;;5014780;28;20269;-71
2021/07/17 05:49:55;;;;;;;19.63;17.00;;;17.00;62.60;;;;;;5015592;28;20464;-71
2021/07/17 05:52:20;;;;;;;18.27;15.60;;;17.00;61.90;;;;;;5014237;28;20467;-70
2021/07/17 05:54:46;;;;;;;17.23;15.37;;;17.00;61.10;;;;;;5012535;28;20270;-70
2021/07/17 05:57:11;;;;;;;21.20;17.40;;;17.00;62.30;;;;;;5010695;28;20572;-70
2021/07/17 05:59:37;;;;;;;19.27;14.17;;;17.00;62.60;;;;;;5010727;28;20645;-70
2021/07/17 06:02:04;;;;;;;14.70;13.17;;;17.00;62.20;;;;;;5009392;28;20528;-70
2021/07/17 06:04:30;;;;;;;19.37;16.00;;;17.10;62.80;;;;;;5010632;28;20996;-70
2021/07/17 06:06:55;;;;;;;16.70;14.90;;;17.10;61.70;;;;;;5009383;28;20434;-70
2021/07/17 06:09:21;;;;;;;21.07;15.20;;;17.20;61.50;;;;;;5009034;28;20211;-70
2021/07/17 06:11:47;;;;;;;18.20;13.67;;;17.20;61.30;;;;;;5010651;28;20213;-70
2021/07/17 06:14:12;;;;;;;15.07;12.03;;;17.30;61.00;;;;;;5009424;28;20227;-70
2021/07/17 06:16:38;;;;;;;25.30;16.20;;;17.30;60.20;;;;;;5010622;28;20186;-71
2021/07/17 06:19:04;;;;;;;20.20;15.40;;;17.30;59.20;;;;;;5010776;28;20609;-71
2021/07/17 06:21:30;;;;;;;19.67;14.60;;;17.30;59.80;;;;;;5010595;28;20511;-70
2021/07/17 06:23:57;;;;;;;19.53;13.77;;;17.30;59.40;;;;;;5010675;28;20728;-71
2021/07/17 06:26:22;;;;;;;25.57;15.10;;;17.20;58.80;;;;;;5010550;28;20415;-71
2021/07/17 06:28:48;;;;;;;13.30;11.93;;;17.30;76.70;;;;;;5010402;28;20804;-72
2021/07/17 06:31:14;;;;;;;14.83;13.23;;;17.30;79.10;;;;;;5010613;28;20216;-71
2021/07/17 06:33:39;;;;;;;23.33;13.73;;;17.40;78.30;;;;;;5010528;28;20681;-70
2021/07/17 06:36:05;;;;;;;18.87;12.43;;;17.40;76.10;;;;;;5009344;28;20666;-71
2021/07/17 06:38:30;;;;;;;17.50;12.73;;;17.50;75.20;;;;;;5009203;28;20523;-71
2021/07/17 06:40:56;;;;;;;15.33;13.73;;;17.50;74.40;;;;;;5010332;28;20180;-71
2021/07/17 06:43:21;;;;;;;20.60;12.60;;;17.50;73.80;;;;;;5010489;28;20283;-71
2021/07/17 06:45:47;;;;;;;21.37;14.10;;;17.40;72.60;;;;;;5010444;28;20623;-70
2021/07/17 06:48:12;;;;;;;20.20;15.20;;;17.40;74.00;;;;;;5010469;28;20179;-71
2021/07/17 06:50:38;;;;;;;23.97;14.20;;;17.40;74.10;;;;;;5009987;28;20238;-72
2021/07/17 06:53:03;;;;;;;18.67;13.37;;;17.40;77.20;;;;;;5010223;28;20572;-69
2021/07/17 06:55:30;;;;;;;17.83;14.23;;;17.50;79.50;;;;;;5009120;28;20215;-73
2021/07/17 06:57:56;;;;;;;22.17;16.10;;;17.60;78.50;;;;;;5010440;28;20179;-70
2021/07/17 07:00:21;;;;;;;20.43;14.93;;;17.50;76.60;;;;;;5007891;28;20777;-71
2021/07/17 07:02:47;;;;;;;18.93;14.30;;;17.50;75.80;;;;;;5005876;28;20197;-73
2021/07/17 07:05:13;;;;;;;14.33;11.73;;;17.60;74.80;;;;;;5016904;28;20429;-71
2021/07/17 07:07:39;;;;;;;15.43;12.73;;;17.70;74.20;;;;;;5019111;28;20222;-72
2021/07/17 07:10:07;;;;;;;19.77;15.07;;;17.70;70.80;;;;;;5005788;28;20215;-72
2021/07/17 07:12:35;;;;;;;20.67;13.03;;;17.80;69.80;;;;;;5005252;28;20462;-72
2021/07/17 07:15:01;;;;;;;17.80;13.93;;;17.80;66.40;;;;;;5006031;28;20493;-71
2021/07/17 07:17:26;;;;;;;20.73;12.47;;;17.70;66.10;;;;;;5009160;28;20443;-71
2021/07/17 07:19:52;;;;;;;20.23;13.87;;;17.80;66.60;;;;;;5008250;28;20658;-71
2021/07/17 07:22:17;;;;;;;24.47;15.07;;;17.90;66.40;;;;;;5013844;28;20551;-71
2021/07/17 07:24:43;;;;;;;19.03;15.40;;;17.80;71.20;;;;;;5028452;28;20195;-71
2021/07/17 07:27:09;;;;;;;25.83;15.50;;;17.80;70.40;;;;;;5029574;28;20187;-72
2021/07/17 07:29:35;;;;;;;21.50;14.80;;;17.80;69.80;;;;;;5028570;28;20194;-71
2021/07/17 07:32:01;;;;;;;17.30;13.17;;;17.80;69.40;;;;;;5028952;28;20548;-72
2021/07/17 07:34:26;;;;;;;20.40;13.63;;;18.00;68.70;;;;;;5027970;28;20187;-71
2021/07/17 07:36:52;;;;;;;14.33;12.80;;;18.10;66.80;;;;;;5028397;28;20803;-71
2021/07/17 07:39:17;;;;;;;25.63;14.10;;;18.20;67.60;;;;;;5029015;28;20195;-73
2021/07/17 07:41:45;;;;;;;16.73;12.80;;;18.30;66.80;;;;;;5011488;28;20192;-72
2021/07/17 07:44:11;;;;;;;18.30;15.17;;;18.40;64.60;;;;;;5021950;28;20262;-71
2021/07/17 07:46:37;;;;;;;14.33;10.07;;;18.30;64.20;;;;;;5009390;28;20554;-72
2021/07/17 07:49:12;;;;;;;18.43;14.10;;;18.30;64.00;;;;;;5022818;28;20517;-71
2021/07/17 07:51:38;;;;;;;17.00;14.43;;;18.20;64.70;;;;;;5028520;28;20453;-70
2021/07/17 07:54:03;;;;;;;17.33;12.43;;;18.20;66.10;;;;;;5026570;28;20830;-71
2021/07/17 07:56:29;;;;;;;13.33;12.00;;;18.20;64.30;;;;;;5027704;28;20552;-73
2021/07/17 07:58:55;;;;;;;15.50;12.27;;;18.30;65.70;;;;;;5020126;28;20227;-71
2021/07/17 08:01:20;;;;;;;14.20;12.57;;;18.30;64.60;;;;;;5007412;28;20971;-71
2021/07/17 08:03:46;;;;;;;15.77;12.23;;;18.30;63.90;;;;;;5010111;28;20212;-71
2021/07/17 08:06:12;;;;;;;14.80;11.87;;;18.30;62.80;;;;;;5006232;28;20246;-72
2021/07/17 08:08:37;;;;;;;17.53;12.10;;;18.20;64.50;;;;;;5014445;28;20549;-70
2021/07/17 08:11:03;;;;;;;15.60;12.10;;;18.20;64.80;;;;;;5026455;28;20190;-71
2021/07/17 08:13:28;;;;;;;17.50;13.20;;;18.10;72.10;;;;;;5035692;28;20207;-71
2021/07/17 08:15:57;;;;;;;27.47;12.80;;;18.20;73.40;;;;;;5035638;28;20171;-72
2021/07/17 08:18:23;;;;;;;15.60;11.90;;;18.40;71.20;;;;;;5040644;28;20221;-71
2021/07/17 08:20:48;;;;;;;17.60;11.63;;;18.40;68.20;;;;;;5040372;28;20950;-72
2021/07/17 08:23:14;;;;;;;12.93;10.60;;;18.50;65.60;;;;;;5031012;28;20250;-71
2021/07/17 08:25:40;;;;;;;15.90;11.40;;;18.60;65.30;;;;;;5032920;28;20687;-71
2021/07/17 08:28:05;;;;;;;14.13;12.07;;;18.70;66.30;;;;;;5033389;28;20892;-71
2021/07/17 08:30:33;;;;;;;14.33;10.43;;;18.80;66.40;;;;;;5033438;28;20249;-72
2021/07/17 08:32:59;;;;;;;14.57;10.87;;;18.80;65.40;;;;;;5033098;28;20195;-71
2021/07/17 08:35:24;;;;;;;18.37;11.23;;;18.90;64.30;;;;;;5033114;28;20842;-70
2021/07/17 08:37:50;;;;;;;13.23;10.43;;;18.90;65.30;;;;;;5033567;28;20262;-70
2021/07/17 08:40:16;;;;;;;10.60;9.57;;;18.80;65.40;;;;;;5033288;28;20188;-70
2021/07/17 08:42:46;;;;;;;14.40;10.97;;;18.70;66.20;;;;;;5033205;28;20179;-70
2021/07/17 08:45:13;;;;;;;14.13;11.40;;;18.60;65.80;;;;;;5033395;28;20178;-70
2021/07/17 08:47:42;;;;;;;12.97;10.80;;;18.60;66.30;;;;;;5031409;28;20465;-70
2021/07/17 08:50:10;;;;;;;13.80;9.97;;;18.60;65.90;;;;;;5034201;28;20418;-70
2021/07/17 08:52:37;;;;;;;16.30;10.10;;;18.70;64.60;;;;;;5033432;28;20458;-70
2021/07/17 08:55:05;;;;;;;14.20;9.60;;;18.80;60.80;;;;;;5032724;28;20516;-73
2021/07/17 08:57:35;;;;;;;9.97;8.30;;;18.90;61.20;;;;;;5033233;28;20430;-69
2021/07/17 09:00:03;;;;;;;15.60;10.63;;;19.00;61.70;;;;;;5032676;28;20507;-69
2021/07/17 09:02:29;;;;;;;13.83;11.07;;;19.00;60.70;;;;;;5025695;28;20513;-70
2021/07/17 09:04:55;;;;;;;14.70;9.57;;;19.10;61.80;;;;;;5013443;28;20897;-71
2021/07/17 09:07:20;;;;;;;11.30;9.93;;;19.10;62.50;;;;;;5014735;28;20184;-70
2021/07/17 09:09:46;;;;;;;14.93;11.43;;;19.00;63.20;;;;;;5022627;28;20214;-69
2021/07/17 09:12:24;;;;;;;10.00;8.30;;;19.00;66.00;;;;;;5013395;28;20200;-70
2021/07/17 09:14:53;;;;;;;15.70;10.37;;;18.80;61.10;;;;;;5013995;28;20430;-70
2021/07/17 09:17:26;;;;;;;14.80;11.83;;;18.70;50.00;;;;;;5012803;28;20435;-69
2021/07/17 09:20:00;;;;;;;11.77;10.10;;;18.70;49.10;;;;;;5014630;28;20418;-70
2021/07/17 09:22:37;;;;;;;12.50;10.70;;;18.60;50.30;;;;;;5019907;28;20439;-69
2021/07/17 09:25:20;;;;;;;16.57;11.43;;;18.50;51.20;;;;;;5013890;28;20438;-70
2021/07/17 09:27:45;;;;;;;14.23;11.70;;;18.40;53.00;;;;;;5014500;28;20415;-70
2021/07/17 09:30:26;;;;;;;16.17;12.57;;;18.30;53.00;;;;;;5031922;28;20434;-70
2021/07/17 09:32:57;;;;;;;18.20;12.17;;;18.30;53.90;;;;;;5034434;28;20940;-70
2021/07/17 09:35:23;;;;;;;18.07;12.00;;;18.30;53.80;;;;;;5035127;28;20406;-70
2021/07/17 09:37:56;;;;;;;12.33;11.23;;;18.30;54.20;;;;;;5034485;28;20410;-70
2021/07/17 09:40:23;;;;;;;14.73;11.43;;;18.40;53.90;;;;;;5031597;28;20230;-70
2021/07/17 09:42:50;;;;;;;18.93;11.53;;;18.50;53.30;;;;;;5031025;28;20496;-70
2021/07/17 09:45:36;;;;;;;17.20;10.00;;;18.50;54.00;;;;;;5029924;28;20418;-71
2021/07/17 09:48:21;;;;;;;23.53;9.90;;;18.60;52.50;;;;;;5031115;28;20413;-70
2021/07/17 09:50:48;;;;;;;18.00;11.90;;;18.70;53.00;;;;;;5031056;28;20406;-71
2021/07/17 09:53:41;;;;;;;15.00;10.83;;;18.80;52.70;;;;;;5030440;28;20469;-71
2021/07/17 09:56:21;;;;;;;16.10;9.87;;;18.90;52.10;;;;;;5030974;28;20903;-70
2021/07/17 09:58:48;;;;;;;11.80;10.63;;;19.00;52.30;;;;;;5020389;28;20512;-71
2021/07/17 10:01:37;;;;;;;11.30;9.60;;;19.20;50.90;;;;;;5029610;28;20426;-71
2021/07/17 10:04:10;;;;;;;15.10;11.80;;;19.30;49.60;;;;;;5020574;28;20534;-71
2021/07/17 10:06:42;;;;;;;13.47;10.03;;;19.30;49.60;;;;;;5011679;28;20991;-71
2021/07/17 10:09:23;;;;;;;21.43;9.50;;;19.10;49.50;;;;;;5023170;28;20422;-71
2021/07/17 10:12:07;;;;;;;14.83;10.93;;;19.20;50.80;;;;;;5030234;28;20459;-71
2021/07/17 10:14:38;;;;;;;15.30;11.70;;;19.30;50.60;;;;;;5030770;28;20469;-71
2021/07/17 10:17:17;;;;;;;16.07;11.33;;;19.30;49.80;;;;;;5012516;28;20426;-71
2021/07/17 10:19:43;;;;;;;12.00;10.17;;;19.30;49.60;;;;;;5027573;28;20833;-71
2021/07/17 10:22:11;;;;;;;12.07;9.87;;;19.30;49.60;;;;;;5030934;28;20472;-71
2021/07/17 10:24:37;;;;;;;16.33;13.17;;;19.40;49.70;;;;;;5029638;28;20868;-71
2021/07/17 10:27:04;;;;;;;12.20;10.27;;;19.50;50.00;;;;;;5032146;28;20777;-71
2021/07/17 10:29:30;;;;;;;15.30;11.90;;;19.60;49.90;;;;;;5031298;28;20924;-71
2021/07/17 10:31:58;;;;;;;13.00;10.60;;;19.70;47.90;;;;;;5031694;28;20457;-71
2021/07/17 10:34:24;;;;;;;14.77;9.77;;;19.70;47.50;;;;;;5031066;28;20187;-71
2021/07/17 10:36:57;;;;;;;17.00;11.37;;;19.80;46.90;;;;;;5030885;28;20752;-71
2021/07/17 10:39:29;;;;;;;12.17;10.87;;;19.90;46.50;;;;;;5030631;28;20430;-71
2021/07/17 10:41:56;;;;;;;14.20;12.03;;;19.90;45.70;;;;;;5029459;28;20425;-71
2021/07/17 10:44:47;;;;;;;12.13;10.23;;;20.00;45.10;;;;;;5030810;28;20533;-71
2021/07/17 10:47:14;;;;;;;11.73;10.20;;;20.10;45.20;;;;;;5030883;28;20406;-70
2021/07/17 10:49:47;;;;;;;18.80;11.90;;;20.20;45.30;;;;;;5031741;28;20421;-70
2021/07/17 10:52:12;;;;;;;11.87;10.23;;;20.30;43.40;;;;;;5029481;28;20458;-71
2021/07/17 10:54:39;;;;;;;12.27;10.97;;;20.30;42.40;;;;;;5013122;28;20497;-71
2021/07/17 10:57:06;;;;;;;13.23;10.83;;;20.40;46.60;;;;;;5025611;28;20233;-71
2021/07/17 10:59:31;;;;;;;11.60;10.17;;;;;;;;;;5019066;28;20418;-70
2021/07/17 11:01:57;;;;;;;14.63;11.20;;;20.40;62.60;;;;;;5023948;28;20425;-70
2021/07/17 11:04:45;;;;;;;15.40;11.67;;;20.40;61.60;;;;;;5032728;28;20434;-69
2021/07/17 11:07:16;;;;;;;16.50;11.83;;;;;;;;;;5033212;28;20207;-70
2021/07/17 11:09:54;;;;;;;12.47;11.27;;;;;;;;;;5031874;28;20424;-70
2021/07/17 11:12:21;;;;;;;17.40;14.10;;;;;;;;;;5028628;28;20481;-70
2021/07/17 11:14:47;;;;;;;20.13;12.67;;;;;;;;;;5021124;28;20450;-70
2021/07/17 11:17:13;;;;;;;12.80;11.43;;;;;;;;;;5011862;28;20412;-70
2021/07/17 11:19:39;;;;;;;13.13;11.17;;;;;;;;;;5018926;28;20584;-71
2021/07/17 11:22:14;;;;;;;13.37;11.97;;;;;;;;;;5033998;28;20449;-71
2021/07/17 11:24:41;;;;;;;14.73;11.73;;;;;;;;;;5023299;28;20461;-71
2021/07/17 11:27:17;;;;;;;23.17;12.33;;;;;;;;;;5019526;28;20514;-71
2021/07/17 11:29:47;;;;;;;14.17;10.83;;;;;;;;;;5013635;28;20473;-71
2021/07/17 11:32:17;;;;;;;15.73;12.67;;;;;;;;;;5013749;28;20963;-70
2021/07/17 11:34:54;;;;;;;13.37;12.03;;;;;;;;;;5012314;28;20427;-70
2021/07/17 11:37:24;;;;;;;12.40;11.10;;;;;;;;;;5030384;28;20425;-70
2021/07/17 11:39:54;;;;;;;12.57;11.27;;;;;;;;;;5032720;28;20417;-70
2021/07/17 11:42:20;;;;;;;12.53;10.40;;;;;;;;;;5032854;28;20406;-70
2021/07/17 11:44:51;;;;;;;12.77;11.40;;;;;;;;;;5032016;28;20479;-70
2021/07/17 11:47:18;;;;;;;19.00;11.80;;;;;;;;;;5033369;28;20410;-71
2021/07/17 11:49:45;;;;;;;15.50;11.73;;;;;;;;;;5032809;28;20885;-71
2021/07/17 11:52:13;;;;;;;17.90;11.60;;;;;;;;;;5027042;28;20497;-71
2021/07/17 11:54:41;;;;;;;17.40;11.70;;;;;;;;;;5041244;23;20488;-72
2021/07/17 11:57:09;;;;;;;17.83;12.53;;;;;;;;;;5052600;28;20414;-71
2021/07/17 11:59:35;;;;;;;12.70;11.10;;;;;;;;;;5054933;28;20433;-72
2021/07/17 12:02:15;;;;;;;12.03;10.63;;;;;;;;;;5055293;28;20405;-71
2021/07/17 12:04:43;;;;;;;15.10;11.00;;;;;;;;;;5046367;28;20466;-71
2021/07/17 12:07:11;;;;;;;14.17;11.13;;;;;;;;;;5020167;28;20456;-73
2021/07/17 12:09:38;;;;;;;13.67;12.07;;;;;;;;;;5050439;28;20481;-73
2021/07/17 12:12:19;;;;;;;15.17;11.50;;;;;;;;;;5052693;28;20452;-70
2021/07/17 12:14:46;;;;;;;17.60;11.20;;;;;;;;;;5055446;28;20503;-70
2021/07/17 12:17:19;;;;;;;16.27;11.40;;;;;;;;;;5055750;28;20456;-71
2021/07/17 12:19:46;;;;;;;16.70;12.03;;;;;;;;;;5022111;28;20429;-71
2021/07/17 12:22:18;;;;;;;14.93;13.13;;;;;;;;;;5036594;28;20433;-71
2021/07/17 12:24:44;;;;;;;12.13;10.00;;;;;;;;;;5018864;28;20962;-71
2021/07/17 12:27:11;;;;;;;14.83;12.43;;;;;;;;;;5018147;28;20491;-71
2021/07/17 12:29:37;;;;;;;16.70;11.40;;;;;;;;;;5049623;28;20432;-71
2021/07/17 12:32:04;;;;;;;27.03;13.30;;;;;;;;;;5037696;28;20476;-70
2021/07/17 12:34:30;;;;;;;22.33;12.37;;;21.60;37.30;;;;;;5055544;28;20931;-71
2021/07/17 12:36:55;;;;;;;18.10;11.47;;;21.60;38.00;;;;;;5056241;28;20405;-71
2021/07/17 12:39:22;;;;;;;15.47;12.03;;;21.50;38.80;;;;;;5055441;28;20221;-71
2021/07/17 12:41:51;;;;;;;12.80;11.50;;;21.40;39.10;;;;;;5039538;28;20624;-72
2021/07/17 12:44:17;;;;;;;16.17;12.20;;;21.20;38.70;;;;;;5048324;28;20425;-71